createdAt,value
2019-02-06T00:02:33.736Z,2.63
2019-02-06T00:03:39.772Z,2.52
2019-02-06T00:04:45.435Z,2.63
2019-02-06T00:05:50.788Z,2.84
2019-02-06T00:06:56.810Z,3.04
2019-02-06T00:08:02.454Z,3.05
2019-02-06T00:09:07.506Z,2.83
2019-02-06T00:10:13.689Z,2.75
2019-02-06T00:11:19.352Z,2.79
2019-02-06T00:12:25.311Z,2.92
2019-02-06T00:13:31.321Z,2.81
2019-02-06T00:14:36.905Z,2.97
2019-02-06T00:15:42.361Z,3.05
2019-02-06T00:16:48.066Z,3.05
2019-02-06T00:17:53.481Z,2.84
2019-02-06T00:18:59.663Z,2.74
2019-02-06T00:20:04.955Z,2.82
2019-02-06T00:21:10.281Z,2.96
2019-02-06T00:22:16.319Z,3.00
2019-02-06T00:23:22.275Z,2.98
2019-02-06T00:24:28.231Z,2.82
2019-02-06T00:25:34.201Z,2.81
2019-02-06T00:26:40.222Z,2.61
2019-02-06T00:27:46.267Z,2.48
2019-02-06T00:28:51.915Z,2.44
2019-02-06T00:29:57.890Z,2.37
2019-02-06T00:31:03.001Z,2.33
2019-02-06T00:32:09.053Z,2.44
2019-02-06T00:33:15.040Z,2.33
2019-02-06T00:34:21.038Z,2.46
2019-02-06T00:35:26.994Z,2.51
2019-02-06T00:36:32.363Z,2.43
2019-02-06T00:37:38.318Z,2.71
2019-02-06T00:38:45.003Z,2.64
2019-02-06T00:39:51.542Z,2.50
2019-02-06T00:40:57.549Z,2.28
2019-02-06T00:42:03.215Z,2.26
2019-02-06T00:43:09.226Z,2.26
2019-02-06T00:44:15.205Z,2.19
2019-02-06T00:45:21.142Z,2.16
2019-02-06T00:46:27.171Z,2.15
2019-02-06T00:47:33.160Z,2.13
2019-02-06T00:48:39.132Z,2.40
2019-02-06T00:49:45.156Z,2.43
2019-02-06T00:50:51.192Z,2.40
2019-02-06T00:51:57.163Z,2.37
2019-02-06T00:53:02.806Z,2.57
2019-02-06T00:54:08.891Z,2.93
2019-02-06T00:55:14.236Z,3.08
2019-02-06T00:56:20.228Z,3.01
2019-02-06T00:57:26.235Z,3.06
2019-02-06T00:58:31.797Z,2.88
2019-02-06T00:59:37.767Z,2.58
2019-02-06T01:00:43.503Z,2.47
2019-02-06T01:01:49.481Z,2.40
2019-02-06T01:02:54.753Z,2.33
2019-02-06T01:04:00.391Z,2.25
2019-02-06T01:05:05.802Z,2.19
2019-02-06T01:06:11.516Z,2.18
2019-02-06T01:07:16.824Z,2.14
2019-02-06T01:08:22.420Z,2.18
2019-02-06T01:09:28.411Z,2.22
2019-02-06T01:10:34.586Z,2.30
2019-02-06T01:11:40.153Z,2.30
2019-02-06T01:12:45.431Z,2.35
2019-02-06T01:13:51.079Z,2.23
2019-02-06T01:14:57.062Z,2.18
2019-02-06T01:16:03.196Z,2.32
2019-02-06T01:17:08.770Z,2.19
2019-02-06T01:18:14.359Z,2.18
2019-02-06T01:19:19.630Z,2.26
2019-02-06T01:20:25.669Z,2.13
2019-02-06T01:21:32.115Z,2.10
2019-02-06T01:22:38.251Z,2.22
2019-02-06T01:23:44.211Z,2.02
2019-02-06T01:24:49.866Z,2.16
2019-02-06T01:25:55.539Z,2.02
2019-02-06T01:27:01.541Z,2.22
2019-02-06T01:28:07.157Z,2.10
2019-02-06T01:29:13.224Z,1.82
2019-02-06T01:30:19.105Z,1.74
2019-02-06T01:31:24.876Z,1.59
2019-02-06T01:32:30.907Z,1.50
2019-02-06T01:33:36.910Z,1.35
2019-02-06T01:34:42.863Z,1.39
2019-02-06T01:35:50.210Z,1.36
2019-02-06T01:36:54.599Z,1.35
2019-02-06T01:38:00.599Z,1.36
2019-02-06T01:39:05.684Z,1.39
2019-02-06T01:40:13.974Z,1.37
2019-02-06T01:41:19.971Z,1.34
2019-02-06T01:42:26.868Z,1.31
2019-02-06T01:43:33.009Z,1.34
2019-02-06T01:44:39.000Z,1.27
2019-02-06T01:45:44.398Z,1.24
2019-02-06T01:46:50.348Z,1.13
2019-02-06T01:47:56.371Z,1.11
2019-02-06T01:49:02.343Z,1.07
2019-02-06T01:50:07.425Z,1.03
2019-02-06T01:51:13.124Z,1.03
2019-02-06T01:52:19.216Z,1.01
2019-02-06T01:53:25.231Z,0.83
2019-02-06T01:54:31.276Z,0.85
2019-02-06T01:55:36.809Z,0.98
2019-02-06T01:56:42.973Z,0.97
2019-02-06T01:57:49.091Z,1.03
2019-02-06T01:58:55.251Z,0.83
2019-02-06T02:00:01.173Z,0.74
2019-02-06T02:01:06.453Z,0.70
2019-02-06T02:02:12.132Z,0.68
2019-02-06T02:03:18.937Z,0.63
2019-02-06T02:04:25.568Z,0.58
2019-02-06T02:05:31.563Z,0.47
2019-02-06T02:06:37.595Z,0.55
2019-02-06T02:07:43.016Z,0.52
2019-02-06T02:08:48.419Z,0.51
2019-02-06T02:09:54.392Z,0.58
2019-02-06T02:11:00.442Z,0.49
2019-02-06T02:12:05.779Z,0.42
2019-02-06T02:13:11.406Z,0.57
2019-02-06T02:14:17.441Z,0.68
2019-02-06T02:15:23.463Z,0.75
2019-02-06T02:16:29.477Z,0.74
2019-02-06T02:17:35.446Z,0.76
2019-02-06T02:18:41.450Z,0.63
2019-02-06T02:19:46.716Z,0.50
2019-02-06T02:20:52.343Z,0.65
2019-02-06T02:21:57.684Z,0.52
2019-02-06T02:23:03.558Z,0.54
2019-02-06T02:24:09.078Z,0.49
2019-02-06T02:25:14.384Z,0.54
2019-02-06T02:26:20.436Z,0.35
2019-02-06T02:27:26.146Z,0.39
2019-02-06T02:28:31.746Z,0.31
2019-02-06T02:29:37.714Z,0.16
2019-02-06T02:30:43.162Z,0.20
2019-02-06T02:31:48.649Z,0.16
2019-02-06T02:32:54.628Z,0.20
2019-02-06T02:34:00.634Z,0.30
2019-02-06T02:35:05.904Z,0.26
2019-02-06T02:36:16.095Z,0.30
2019-02-06T02:37:17.531Z,0.25
2019-02-06T02:38:23.552Z,0.13
2019-02-06T02:39:29.607Z,-0.05
2019-02-06T02:40:35.650Z,-0.08
2019-02-06T02:41:41.495Z,-0.16
2019-02-06T02:42:47.573Z,-0.25
2019-02-06T02:43:53.553Z,-0.16
2019-02-06T02:44:59.568Z,-0.07
2019-02-06T02:46:04.948Z,-0.17
2019-02-06T02:47:11.078Z,-0.19
2019-02-06T02:48:17.037Z,-0.08
2019-02-06T02:49:23.080Z,-0.13
2019-02-06T02:50:29.071Z,-0.09
2019-02-06T02:51:35.045Z,-0.15
2019-02-06T02:52:40.383Z,-0.04
2019-02-06T02:53:46.377Z,0.05
2019-02-06T02:54:52.395Z,-0.04
2019-02-06T02:55:58.418Z,-0.04
2019-02-06T02:57:04.615Z,-0.07
2019-02-06T02:58:09.898Z,-0.10
2019-02-06T02:59:15.893Z,-0.21
2019-02-06T03:00:26.600Z,-0.29
2019-02-06T03:01:33.731Z,-0.32
2019-02-06T03:02:39.491Z,-0.42
2019-02-06T03:03:45.268Z,-0.52
2019-02-06T03:04:51.693Z,-0.56
2019-02-06T03:05:57.428Z,-0.42
2019-02-06T03:07:03.488Z,-0.28
2019-02-06T03:08:09.354Z,-0.23
2019-02-06T03:09:15.047Z,-0.27
2019-02-06T03:10:21.045Z,-0.38
2019-02-06T03:11:27.080Z,-0.42
2019-02-06T03:12:33.086Z,-0.48
2019-02-06T03:13:39.084Z,-0.53
2019-02-06T03:14:45.161Z,-0.60
2019-02-06T03:15:51.104Z,-0.41
2019-02-06T03:16:57.073Z,-0.28
2019-02-06T03:18:02.712Z,-0.37
2019-02-06T03:19:08.795Z,-0.33
2019-02-06T03:20:14.085Z,-0.14
2019-02-06T03:21:19.786Z,-0.22
2019-02-06T03:22:25.789Z,-0.42
2019-02-06T03:23:31.847Z,-0.55
2019-02-06T03:24:37.504Z,-0.55
2019-02-06T03:25:43.138Z,-0.61
2019-02-06T03:26:49.124Z,-0.56
2019-02-06T03:27:55.145Z,-0.68
2019-02-06T03:29:01.226Z,-0.64
2019-02-06T03:30:06.631Z,-0.72
2019-02-06T03:31:12.691Z,-0.71
2019-02-06T03:32:18.745Z,-0.70
2019-02-06T03:33:24.714Z,-0.76
2019-02-06T03:34:30.743Z,-0.80
2019-02-06T03:35:36.770Z,-0.83
2019-02-06T03:36:42.764Z,-0.90
2019-02-06T03:37:48.765Z,-0.87
2019-02-06T03:38:54.762Z,-0.94
2019-02-06T03:40:00.773Z,-0.95
2019-02-06T03:41:06.611Z,-1.01
2019-02-06T03:42:12.654Z,-0.94
2019-02-06T03:43:18.312Z,-0.81
2019-02-06T03:44:23.949Z,-0.90
2019-02-06T03:45:29.979Z,-0.91
2019-02-06T03:46:36.015Z,-1.01
2019-02-06T03:47:41.707Z,-1.01
2019-02-06T03:48:47.303Z,-1.02
2019-02-06T03:49:54.061Z,-0.84
2019-02-06T03:51:00.567Z,-0.91
2019-02-06T03:52:06.213Z,-0.95
2019-02-06T03:53:11.948Z,-0.94
2019-02-06T03:54:17.927Z,-0.93
2019-02-06T03:55:24.039Z,-0.93
2019-02-06T03:56:30.025Z,-0.77
2019-02-06T03:57:36.034Z,-0.61
2019-02-06T03:58:42.035Z,-0.55
2019-02-06T03:59:48.060Z,-0.61
2019-02-06T04:00:54.105Z,-0.72
2019-02-06T04:02:00.094Z,-0.78
2019-02-06T04:03:05.363Z,-0.84
2019-02-06T04:04:11.349Z,-0.96
2019-02-06T04:05:16.706Z,-1.16
2019-02-06T04:06:22.726Z,-1.21
2019-02-06T04:07:28.742Z,-1.25
2019-02-06T04:08:34.696Z,-1.34
2019-02-06T04:09:40.687Z,-1.32
2019-02-06T04:10:47.637Z,-1.33
2019-02-06T04:11:54.035Z,-1.34
2019-02-06T04:13:00.029Z,-1.32
2019-02-06T04:14:05.374Z,-1.32
2019-02-06T04:15:10.708Z,-1.29
2019-02-06T04:16:16.697Z,-1.31
2019-02-06T04:17:22.648Z,-1.35
2019-02-06T04:18:28.692Z,-1.38
2019-02-06T04:19:34.354Z,-1.40
2019-02-06T04:20:40.339Z,-1.42
2019-02-06T04:21:46.307Z,-1.45
2019-02-06T04:22:52.285Z,-1.48
2019-02-06T04:23:58.291Z,-1.49
2019-02-06T04:25:03.621Z,-1.51
2019-02-06T04:26:09.765Z,-1.50
2019-02-06T04:27:15.416Z,-1.40
2019-02-06T04:28:21.367Z,-1.39
2019-02-06T04:29:27.328Z,-1.45
2019-02-06T04:30:33.351Z,-1.44
2019-02-06T04:31:39.350Z,-1.48
2019-02-06T04:32:45.050Z,-1.50
2019-02-06T04:33:51.033Z,-1.51
2019-02-06T04:34:57.038Z,-1.52
2019-02-06T04:36:03.084Z,-1.51
2019-02-06T04:37:09.104Z,-1.53
2019-02-06T04:38:15.080Z,-1.55
2019-02-06T04:39:21.020Z,-1.55
2019-02-06T04:40:27.063Z,-1.54
2019-02-06T04:41:32.728Z,-1.54
2019-02-06T04:42:38.759Z,-1.56
2019-02-06T04:43:44.867Z,-1.57
2019-02-06T04:44:50.847Z,-1.57
2019-02-06T04:45:56.873Z,-1.53
2019-02-06T04:47:02.850Z,-1.58
2019-02-06T04:48:08.542Z,-1.58
2019-02-06T04:49:14.507Z,-1.57
2019-02-06T04:50:20.496Z,-1.58
2019-02-06T04:51:26.490Z,-1.58
2019-02-06T04:52:32.499Z,-1.62
2019-02-06T04:53:38.579Z,-1.63
2019-02-06T04:54:44.642Z,-1.65
2019-02-06T04:55:50.643Z,-1.67
2019-02-06T04:56:56.648Z,-1.67
2019-02-06T04:58:02.647Z,-1.65
2019-02-06T04:59:08.611Z,-1.67
2019-02-06T05:00:23.453Z,-1.66
2019-02-06T05:01:29.082Z,-1.67
2019-02-06T05:02:35.120Z,-1.69
2019-02-06T05:03:41.136Z,-1.69
2019-02-06T05:04:47.164Z,-1.67
2019-02-06T05:05:53.252Z,-1.69
2019-02-06T05:06:58.881Z,-1.67
2019-02-06T05:08:05.136Z,-1.71
2019-02-06T05:09:11.183Z,-1.74
2019-02-06T05:10:16.896Z,-1.73
2019-02-06T05:11:22.951Z,-1.73
2019-02-06T05:12:29.010Z,-1.72
2019-02-06T05:13:35.028Z,-1.72
2019-02-06T05:14:41.715Z,-1.64
2019-02-06T05:15:48.238Z,-1.65
2019-02-06T05:16:54.190Z,-1.74
2019-02-06T05:18:00.149Z,-1.78
2019-02-06T05:19:06.240Z,-1.79
2019-02-06T05:20:22.851Z,-1.81
2019-02-06T05:21:28.836Z,-1.83
2019-02-06T05:22:34.823Z,-1.81
2019-02-06T05:23:40.847Z,-1.79
2019-02-06T05:24:46.830Z,-1.82
2019-02-06T05:25:52.828Z,-1.82
2019-02-06T05:26:58.834Z,-1.81
2019-02-06T05:28:04.147Z,-1.83
2019-02-06T05:29:10.182Z,-1.83
2019-02-06T05:30:15.843Z,-1.85
2019-02-06T05:31:21.860Z,-1.83
2019-02-06T05:32:27.814Z,-1.83
2019-02-06T05:33:33.753Z,-1.87
2019-02-06T05:34:39.786Z,-1.92
2019-02-06T05:35:45.891Z,-1.90
2019-02-06T05:36:51.859Z,-1.88
2019-02-06T05:37:57.882Z,-1.83
2019-02-06T05:39:03.342Z,-1.81
2019-02-06T05:40:08.664Z,-1.76
2019-02-06T05:41:14.665Z,-1.84
2019-02-06T05:42:20.268Z,-1.89
2019-02-06T05:43:26.604Z,-1.86
2019-02-06T05:44:32.631Z,-1.86
2019-02-06T05:45:38.604Z,-1.92
2019-02-06T05:46:44.640Z,-1.93
2019-02-06T05:47:51.039Z,-1.93
2019-02-06T05:48:57.114Z,-1.95
2019-02-06T05:50:03.085Z,-1.99
2019-02-06T05:51:09.097Z,-1.99
2019-02-06T05:52:15.150Z,-2.01
2019-02-06T05:53:21.135Z,-1.93
2019-02-06T05:54:27.136Z,-1.90
2019-02-06T05:55:33.143Z,-1.68
2019-02-06T05:56:39.212Z,-1.57
2019-02-06T05:57:45.707Z,-1.51
2019-02-06T05:58:51.915Z,-1.55
2019-02-06T05:59:57.849Z,-1.61
2019-02-06T06:01:03.476Z,-1.45
2019-02-06T06:02:09.474Z,-1.46
2019-02-06T06:03:15.471Z,-1.61
2019-02-06T06:04:21.547Z,-1.65
2019-02-06T06:05:27.182Z,-1.73
2019-02-06T06:06:33.161Z,-1.78
2019-02-06T06:07:45.133Z,-1.80
2019-02-06T06:08:45.206Z,-1.80
2019-02-06T06:09:51.215Z,-1.84
2019-02-06T06:10:57.198Z,-1.90
2019-02-06T06:12:03.177Z,-1.86
2019-02-06T06:13:09.208Z,-1.90
2019-02-06T06:14:15.213Z,-1.96
2019-02-06T06:15:20.502Z,-2.03
2019-02-06T06:16:26.502Z,-2.09
2019-02-06T06:17:32.492Z,-2.13
2019-02-06T06:18:38.510Z,-2.10
2019-02-06T06:19:44.464Z,-2.13
2019-02-06T06:20:50.478Z,-2.13
2019-02-06T06:21:56.506Z,-2.10
2019-02-06T06:23:02.449Z,-2.09
2019-02-06T06:24:09.189Z,-2.08
2019-02-06T06:25:13.053Z,-2.05
2019-02-06T06:26:19.128Z,-2.10
2019-02-06T06:27:25.069Z,-2.14
2019-02-06T06:28:31.115Z,-2.12
2019-02-06T06:29:36.887Z,-2.07
2019-02-06T06:30:42.935Z,-1.97
2019-02-06T06:31:48.926Z,-1.97
2019-02-06T06:32:54.865Z,-2.01
2019-02-06T06:34:00.856Z,-1.99
2019-02-06T06:35:06.109Z,-1.92
2019-02-06T06:36:12.099Z,-1.92
2019-02-06T06:37:18.149Z,-1.92
2019-02-06T06:38:24.229Z,-1.88
2019-02-06T06:39:30.262Z,-1.89
2019-02-06T06:40:35.900Z,-1.94
2019-02-06T06:41:41.183Z,-1.92
2019-02-06T06:42:46.830Z,-1.84
2019-02-06T06:43:52.834Z,-1.85
2019-02-06T06:44:58.941Z,-1.84
2019-02-06T06:46:04.641Z,-1.76
2019-02-06T06:47:10.677Z,-1.72
2019-02-06T06:48:16.711Z,-1.76
2019-02-06T06:49:22.884Z,-1.74
2019-02-06T06:50:28.155Z,-1.79
2019-02-06T06:51:34.120Z,-1.82
2019-02-06T06:52:40.097Z,-1.76
2019-02-06T06:53:46.082Z,-1.75
2019-02-06T06:54:52.081Z,-1.73
2019-02-06T06:55:58.154Z,-1.74
2019-02-06T06:57:03.859Z,-1.75
2019-02-06T06:58:10.242Z,-1.75
2019-02-06T06:59:16.368Z,-1.73
2019-02-06T07:00:24.127Z,-1.73
2019-02-06T07:01:31.542Z,-1.73
2019-02-06T07:02:37.681Z,-1.69
2019-02-06T07:03:43.619Z,-1.75
2019-02-06T07:04:49.606Z,-1.74
2019-02-06T07:05:55.598Z,-1.75
2019-02-06T07:07:01.236Z,-1.64
2019-02-06T07:08:09.552Z,-1.58
2019-02-06T07:09:12.936Z,-1.62
2019-02-06T07:10:18.204Z,-1.65
2019-02-06T07:11:24.139Z,-1.65
2019-02-06T07:12:30.179Z,-1.59
2019-02-06T07:13:37.179Z,-1.65
2019-02-06T07:14:42.312Z,-1.49
2019-02-06T07:15:48.314Z,-1.39
2019-02-06T07:16:54.363Z,-1.42
2019-02-06T07:17:59.656Z,-1.47
2019-02-06T07:19:05.630Z,-1.45
2019-02-06T07:20:10.976Z,-1.43
2019-02-06T07:21:16.936Z,-1.39
2019-02-06T07:22:23.619Z,-1.37
2019-02-06T07:23:29.722Z,-1.36
2019-02-06T07:24:35.756Z,-1.39
2019-02-06T07:25:41.762Z,-1.38
2019-02-06T07:26:47.706Z,-1.35
2019-02-06T07:27:53.363Z,-1.25
2019-02-06T07:28:59.377Z,-1.18
2019-02-06T07:30:05.541Z,-1.24
2019-02-06T07:31:11.174Z,-1.17
2019-02-06T07:32:17.162Z,-1.19
2019-02-06T07:33:23.140Z,-1.14
2019-02-06T07:34:29.077Z,-1.09
2019-02-06T07:35:35.054Z,-1.02
2019-02-06T07:36:40.991Z,-1.08
2019-02-06T07:37:46.708Z,-1.01
2019-02-06T07:38:52.747Z,-0.96
2019-02-06T07:39:58.728Z,-0.93
2019-02-06T07:41:04.063Z,-0.90
2019-02-06T07:42:09.706Z,-0.86
2019-02-06T07:43:16.406Z,-0.90
2019-02-06T07:44:22.941Z,-0.81
2019-02-06T07:45:28.271Z,-0.78
2019-02-06T07:46:34.261Z,-0.72
2019-02-06T07:47:39.956Z,-0.78
2019-02-06T07:48:45.956Z,-0.79
2019-02-06T07:49:51.944Z,-0.79
2019-02-06T07:50:57.956Z,-0.80
2019-02-06T07:52:04.185Z,-0.79
2019-02-06T07:53:09.828Z,-0.77
2019-02-06T07:54:15.458Z,-0.68
2019-02-06T07:55:20.742Z,-0.65
2019-02-06T07:56:26.669Z,-0.66
2019-02-06T07:57:32.688Z,-0.58
2019-02-06T07:58:38.982Z,-0.45
2019-02-06T07:59:44.968Z,-0.38
2019-02-06T08:00:50.980Z,-0.40
2019-02-06T08:01:56.967Z,-0.43
2019-02-06T08:03:02.826Z,-0.36
2019-02-06T08:04:09.539Z,-0.32
2019-02-06T08:05:16.745Z,-0.30
2019-02-06T08:06:22.766Z,-0.31
2019-02-06T08:07:28.842Z,-0.24
2019-02-06T08:08:36.393Z,-0.14
2019-02-06T08:09:40.187Z,-0.14
2019-02-06T08:10:46.162Z,-0.03
2019-02-06T08:11:52.164Z,-0.10
2019-02-06T08:12:57.922Z,0.00
2019-02-06T08:14:03.640Z,0.00
2019-02-06T08:15:09.253Z,-0.01
2019-02-06T08:16:14.884Z,-0.02
2019-02-06T08:17:20.843Z,-0.01
2019-02-06T08:18:26.847Z,0.05
2019-02-06T08:19:32.841Z,0.05
2019-02-06T08:20:38.966Z,0.10
2019-02-06T08:21:44.857Z,0.13
2019-02-06T08:22:51.198Z,0.23
2019-02-06T08:23:57.354Z,0.20
2019-02-06T08:25:03.765Z,0.22
2019-02-06T08:26:10.095Z,0.20
2019-02-06T08:27:16.157Z,0.30
2019-02-06T08:28:22.207Z,0.35
2019-02-06T08:29:28.223Z,0.44
2019-02-06T08:30:33.476Z,0.42
2019-02-06T08:31:40.453Z,0.50
2019-02-06T08:32:46.140Z,0.55
2019-02-06T08:33:52.234Z,0.59
2019-02-06T08:34:58.170Z,0.67
2019-02-06T08:36:03.491Z,0.75
2019-02-06T08:37:09.425Z,0.84
2019-02-06T08:38:15.394Z,0.92
2019-02-06T08:39:21.384Z,0.95
2019-02-06T08:40:26.691Z,1.07
2019-02-06T08:41:32.684Z,1.24
2019-02-06T08:42:38.663Z,1.36
2019-02-06T08:43:44.695Z,1.51
2019-02-06T08:44:50.639Z,1.48
2019-02-06T08:45:56.591Z,1.43
2019-02-06T08:47:02.602Z,1.44
2019-02-06T08:48:08.294Z,1.48
2019-02-06T08:49:14.260Z,1.61
2019-02-06T08:50:20.383Z,1.58
2019-02-06T08:51:26.010Z,1.61
2019-02-06T08:52:32.025Z,1.67
2019-02-06T08:53:38.030Z,1.70
2019-02-06T08:54:44.845Z,1.79
2019-02-06T08:55:50.487Z,1.99
2019-02-06T08:56:56.153Z,2.06
2019-02-06T08:58:01.473Z,2.12
2019-02-06T08:59:06.832Z,2.08
2019-02-06T09:00:15.866Z,2.15
2019-02-06T09:01:21.879Z,2.35
2019-02-06T09:02:27.502Z,2.45
2019-02-06T09:03:33.523Z,2.52
2019-02-06T09:04:39.127Z,2.45
2019-02-06T09:05:45.102Z,2.44
2019-02-06T09:06:51.101Z,2.45
2019-02-06T09:07:57.674Z,2.45
2019-02-06T09:09:03.095Z,2.49
2019-02-06T09:10:17.168Z,2.44
2019-02-06T09:11:23.174Z,2.59
2019-02-06T09:12:29.153Z,2.60
2019-02-06T09:13:34.964Z,2.59
2019-02-06T09:14:40.965Z,2.60
2019-02-06T09:15:46.993Z,2.69
2019-02-06T09:16:52.259Z,2.68
2019-02-06T09:17:57.905Z,2.80
2019-02-06T09:19:03.833Z,2.88
2019-02-06T09:20:10.622Z,2.82
2019-02-06T09:21:16.649Z,3.12
2019-02-06T09:22:22.672Z,3.16
2019-02-06T09:23:28.309Z,3.07
2019-02-06T09:24:34.303Z,3.01
2019-02-06T09:25:39.944Z,3.07
2019-02-06T09:26:45.574Z,3.25
2019-02-06T09:27:50.822Z,3.49
2019-02-06T09:28:57.604Z,3.46
2019-02-06T09:30:03.471Z,3.48
2019-02-06T09:31:09.040Z,3.50
2019-02-06T09:32:15.061Z,3.33
2019-02-06T09:33:21.081Z,3.23
2019-02-06T09:34:27.196Z,3.44
2019-02-06T09:35:32.832Z,3.63
2019-02-06T09:36:38.845Z,3.62
2019-02-06T09:37:44.063Z,3.56
2019-02-06T09:38:50.061Z,3.54
2019-02-06T09:39:56.104Z,3.54
2019-02-06T09:41:02.068Z,3.72
2019-02-06T09:42:08.028Z,3.68
2019-02-06T09:43:13.991Z,3.68
2019-02-06T09:44:20.015Z,3.97
2019-02-06T09:45:25.740Z,3.94
2019-02-06T09:46:31.692Z,3.88
2019-02-06T09:47:37.311Z,4.05
2019-02-06T09:48:43.314Z,4.18
2019-02-06T09:49:49.915Z,4.06
2019-02-06T09:50:55.282Z,4.17
2019-02-06T09:52:01.243Z,4.12
2019-02-06T09:53:07.274Z,4.19
2019-02-06T09:54:13.297Z,4.15
2019-02-06T09:55:18.951Z,4.09
2019-02-06T09:56:24.960Z,4.10
2019-02-06T09:57:30.975Z,4.05
2019-02-06T09:58:36.915Z,4.18
2019-02-06T09:59:42.911Z,4.29
2019-02-06T10:00:48.562Z,4.39
2019-02-06T10:01:54.574Z,4.43
2019-02-06T10:03:00.539Z,4.48
2019-02-06T10:04:06.633Z,4.37
2019-02-06T10:05:11.954Z,4.57
2019-02-06T10:06:17.606Z,4.76
2019-02-06T10:07:23.613Z,4.91
2019-02-06T10:08:29.206Z,5.00
2019-02-06T10:09:35.228Z,5.11
2019-02-06T10:10:40.858Z,5.12
2019-02-06T10:11:47.461Z,4.90
2019-02-06T10:12:53.194Z,4.85
2019-02-06T10:13:59.312Z,4.85
2019-02-06T10:15:04.731Z,4.87
2019-02-06T10:16:10.762Z,4.97
2019-02-06T10:17:16.821Z,5.02
2019-02-06T10:18:22.795Z,4.95
2019-02-06T10:19:28.761Z,5.03
2019-02-06T10:20:34.048Z,4.96
2019-02-06T10:21:40.013Z,4.90
2019-02-06T10:22:45.706Z,4.95
2019-02-06T10:23:51.348Z,5.03
2019-02-06T10:24:57.354Z,5.03
2019-02-06T10:26:02.966Z,5.06
2019-02-06T10:27:08.571Z,5.15
2019-02-06T10:28:14.547Z,5.30
2019-02-06T10:29:20.556Z,5.16
2019-02-06T10:30:25.891Z,5.39
2019-02-06T10:31:32.970Z,5.47
2019-02-06T10:32:38.501Z,5.32
2019-02-06T10:33:44.468Z,5.29
2019-02-06T10:34:50.511Z,5.39
2019-02-06T10:35:56.470Z,5.46
2019-02-06T10:37:02.404Z,5.39
2019-02-06T10:38:07.681Z,5.54
2019-02-06T10:39:13.301Z,5.80
2019-02-06T10:40:18.667Z,5.48
2019-02-06T10:41:24.279Z,5.57
2019-02-06T10:42:30.234Z,5.42
2019-02-06T10:43:36.226Z,5.45
2019-02-06T10:44:42.399Z,5.41
2019-02-06T10:45:48.424Z,5.58
2019-02-06T10:46:53.650Z,5.86
2019-02-06T10:47:59.236Z,5.77
2019-02-06T10:49:04.300Z,5.70
2019-02-06T10:50:09.629Z,5.85
2019-02-06T10:51:15.261Z,5.77
2019-02-06T10:52:20.872Z,5.87
2019-02-06T10:53:26.857Z,5.73
2019-02-06T10:54:33.553Z,5.71
2019-02-06T10:55:40.011Z,5.68
2019-02-06T10:56:46.068Z,5.75
2019-02-06T10:57:52.003Z,6.02
2019-02-06T10:58:57.717Z,6.03
2019-02-06T11:00:03.234Z,5.93
2019-02-06T11:01:09.246Z,6.01
2019-02-06T11:02:14.887Z,5.94
2019-02-06T11:03:20.904Z,5.82
2019-02-06T11:04:26.898Z,5.83
2019-02-06T11:05:32.217Z,6.10
2019-02-06T11:06:37.801Z,6.19
2019-02-06T11:07:46.118Z,5.97
2019-02-06T11:08:49.029Z,6.09
2019-02-06T11:09:54.767Z,6.04
2019-02-06T11:11:00.741Z,6.08
2019-02-06T11:12:06.787Z,6.03
2019-02-06T11:13:12.380Z,5.99
2019-02-06T11:14:18.140Z,5.95
2019-02-06T11:15:23.971Z,6.16
2019-02-06T11:16:30.390Z,6.23
2019-02-06T11:17:36.047Z,6.08
2019-02-06T11:18:44.429Z,5.95
2019-02-06T11:19:48.048Z,6.08
2019-02-06T11:20:53.999Z,6.26
2019-02-06T11:22:00.004Z,6.32
2019-02-06T11:23:05.240Z,6.27
2019-02-06T11:24:11.235Z,6.36
2019-02-06T11:25:16.682Z,6.48
2019-02-06T11:26:22.661Z,6.54
2019-02-06T11:27:28.675Z,6.64
2019-02-06T11:28:34.864Z,6.48
2019-02-06T11:29:40.859Z,6.59
2019-02-06T11:30:46.823Z,6.49
2019-02-06T11:31:52.750Z,6.66
2019-02-06T11:32:58.354Z,6.64
2019-02-06T11:34:03.992Z,6.80
2019-02-06T11:35:09.323Z,6.85
2019-02-06T11:36:23.790Z,6.96
2019-02-06T11:37:22.348Z,6.78
2019-02-06T11:38:28.338Z,6.92
2019-02-06T11:39:34.342Z,6.99
2019-02-06T11:40:39.979Z,7.03
2019-02-06T11:41:45.615Z,7.03
2019-02-06T11:42:50.881Z,7.11
2019-02-06T11:43:56.871Z,7.28
2019-02-06T11:45:02.447Z,7.46
2019-02-06T11:46:09.141Z,7.32
2019-02-06T11:47:14.053Z,7.31
2019-02-06T11:48:19.652Z,7.41
2019-02-06T11:49:25.085Z,7.47
2019-02-06T11:50:30.144Z,7.58
2019-02-06T11:51:35.369Z,7.57
2019-02-06T11:52:41.346Z,7.48
2019-02-06T11:53:47.264Z,7.65
2019-02-06T11:54:53.219Z,7.49
2019-02-06T11:55:58.854Z,7.48
2019-02-06T11:57:05.049Z,7.45
2019-02-06T11:58:10.796Z,7.37
2019-02-06T11:59:16.783Z,7.41
2019-02-06T12:00:22.380Z,7.43
2019-02-06T12:01:28.077Z,7.48
2019-02-06T12:02:37.399Z,7.53
2019-02-06T12:03:39.723Z,7.56
2019-02-06T12:04:45.768Z,7.65
2019-02-06T12:05:51.057Z,7.85
2019-02-06T12:06:56.978Z,8.05
2019-02-06T12:08:02.600Z,8.06
2019-02-06T12:09:07.929Z,8.04
2019-02-06T12:10:14.681Z,8.01
2019-02-06T12:11:20.721Z,8.06
2019-02-06T12:12:26.684Z,7.98
2019-02-06T12:13:32.650Z,7.88
2019-02-06T12:14:38.662Z,7.66
2019-02-06T12:15:43.954Z,7.93
2019-02-06T12:16:49.975Z,7.80
2019-02-06T12:17:55.633Z,7.84
2019-02-06T12:19:01.705Z,7.78
2019-02-06T12:20:08.696Z,7.90
2019-02-06T12:21:17.807Z,7.94
2019-02-06T12:22:20.770Z,7.96
2019-02-06T12:23:32.263Z,7.81
2019-02-06T12:24:32.635Z,7.78
2019-02-06T12:25:38.298Z,7.79
2019-02-06T12:26:44.011Z,7.91
2019-02-06T12:27:50.079Z,7.79
2019-02-06T12:28:56.074Z,7.69
2019-02-06T12:30:01.340Z,7.87
2019-02-06T12:31:07.008Z,8.04
2019-02-06T12:32:12.908Z,8.11
2019-02-06T12:33:18.474Z,8.04
2019-02-06T12:34:24.429Z,8.06
2019-02-06T12:35:29.701Z,7.91
2019-02-06T12:36:35.364Z,7.90
2019-02-06T12:37:41.303Z,7.84
2019-02-06T12:38:53.436Z,7.74
2019-02-06T12:39:53.023Z,7.81
2019-02-06T12:40:58.938Z,7.84
2019-02-06T12:42:04.244Z,7.97
2019-02-06T12:43:10.683Z,8.11
2019-02-06T12:44:16.248Z,8.21
2019-02-06T12:45:21.541Z,8.16
2019-02-06T12:46:27.554Z,8.27
2019-02-06T12:47:33.155Z,8.37
2019-02-06T12:48:39.096Z,8.21
2019-02-06T12:49:45.103Z,8.18
2019-02-06T12:50:50.694Z,8.09
2019-02-06T12:51:56.665Z,8.24
2019-02-06T12:53:02.660Z,8.22
2019-02-06T12:54:08.312Z,8.09
2019-02-06T12:56:52.546Z,8.09
2019-02-06T12:57:58.194Z,8.32
2019-02-06T12:59:04.146Z,8.43
2019-02-06T13:00:11.130Z,8.31
2019-02-06T13:01:17.119Z,8.60
2019-02-06T13:02:23.069Z,8.56
2019-02-06T13:03:29.059Z,8.59
2019-02-06T13:04:35.104Z,8.76
2019-02-06T13:05:40.382Z,8.90
2019-02-06T13:06:50.174Z,8.76
2019-02-06T13:07:55.460Z,8.78
2019-02-06T13:09:01.380Z,8.70
2019-02-06T13:10:06.753Z,8.76
2019-02-06T13:11:12.789Z,8.82
2019-02-06T13:12:18.440Z,8.77
2019-02-06T13:13:24.399Z,8.80
2019-02-06T13:14:30.372Z,8.98
2019-02-06T13:15:36.007Z,9.03
2019-02-06T13:16:42.041Z,8.92
2019-02-06T13:17:47.438Z,9.16
2019-02-06T13:18:53.392Z,9.37
2019-02-06T13:19:59.427Z,9.62
2019-02-06T13:21:04.695Z,9.60
2019-02-06T13:22:10.705Z,9.37
2019-02-06T13:23:16.725Z,9.25
2019-02-06T13:24:22.706Z,9.35
2019-02-06T13:25:28.697Z,9.64
2019-02-06T13:26:34.755Z,9.38
2019-02-06T13:27:40.725Z,9.13
2019-02-06T13:28:46.685Z,9.18
2019-02-06T13:29:52.705Z,9.39
2019-02-06T13:30:58.395Z,9.54
2019-02-06T13:32:03.781Z,9.51
2019-02-06T13:33:11.624Z,9.56
2019-02-06T13:34:15.122Z,9.91
2019-02-06T13:35:21.114Z,10.00
2019-02-06T13:36:27.187Z,9.94
2019-02-06T13:37:33.170Z,9.73
2019-02-06T13:38:39.146Z,9.76
2019-02-06T13:39:45.223Z,9.67
2019-02-06T13:40:51.179Z,9.47
2019-02-06T13:41:57.199Z,8.86
2019-02-06T13:43:03.965Z,9.02
2019-02-06T13:44:10.036Z,8.92
2019-02-06T13:45:15.344Z,8.95
2019-02-06T13:46:21.358Z,9.30
2019-02-06T13:47:27.345Z,9.11
2019-02-06T13:48:33.878Z,9.21
2019-02-06T13:49:39.456Z,9.14
2019-02-06T13:50:44.776Z,9.12
2019-02-06T13:51:50.352Z,9.21
2019-02-06T13:52:55.715Z,9.36
2019-02-06T13:54:01.648Z,9.24
2019-02-06T13:55:07.976Z,9.18
2019-02-06T13:56:14.671Z,9.12
2019-02-06T13:57:20.626Z,9.26
2019-02-06T13:58:25.928Z,9.20
2019-02-06T13:59:31.492Z,9.10
2019-02-06T14:00:38.475Z,9.11
2019-02-06T14:01:44.528Z,9.15
2019-02-06T14:02:49.822Z,9.16
2019-02-06T14:03:56.012Z,9.11
2019-02-06T14:05:02.292Z,9.12
2019-02-06T14:06:07.532Z,9.04
2019-02-06T14:07:13.492Z,8.78
2019-02-06T14:08:19.061Z,8.69
2019-02-06T14:09:26.630Z,8.79
2019-02-06T14:10:29.728Z,8.64
2019-02-06T14:11:35.397Z,8.88
2019-02-06T14:12:40.687Z,9.11
2019-02-06T14:13:46.666Z,9.34
2019-02-06T14:14:52.357Z,9.14
2019-02-06T14:15:57.730Z,9.00
2019-02-06T14:17:03.445Z,8.91
2019-02-06T14:18:08.935Z,9.02
2019-02-06T14:19:15.029Z,9.15
2019-02-06T14:20:20.322Z,9.08
2019-02-06T14:21:26.290Z,8.98
2019-02-06T14:22:32.187Z,9.06
2019-02-06T14:23:48.626Z,8.96
2019-02-06T14:24:52.813Z,9.04
2019-02-06T14:26:02.731Z,9.00
2019-02-06T14:29:04.008Z,9.06
2019-02-06T14:30:24.963Z,8.69
2019-02-06T14:31:42.012Z,8.83
2019-02-06T14:34:41.042Z,8.79